Time;durP1;ratioP1;P1;durP2;ratioP2;P2;SDS_P1;SDS_P2;PMS_P1;PMS_P2;Temp;Humidity;BMP_temperature;BMP_pressure;BME280_temperature;BME280_humidity;BME280_pressure;Samples;Min_cycle;Max_cycle;Signal;HPM_P1;HPM_P2
2021/01/22 00:00:42;;;;;;;26.20;20.38;;;179.50;1971.20;;;;;;4842874;29;20038;-81
2021/01/22 00:03:08;;;;;;;28.40;19.98;;;179.50;1971.20;;;;;;4845318;29;20034;-81
2021/01/22 00:05:33;;;;;;;27.08;20.75;;;179.60;1971.20;;;;;;4846109;29;20058;-81
2021/01/22 00:07:59;;;;;;;29.10;20.77;;;179.60;1971.20;;;;;;4834892;29;20096;-83
2021/01/22 00:10:26;;;;;;;24.15;18.58;;;179.60;1971.20;;;;;;4841456;29;20050;-82
2021/01/22 00:12:52;;;;;;;26.33;18.75;;;179.60;1971.20;;;;;;4844958;29;20086;-82
2021/01/22 00:15:18;;;;;;;26.42;18.90;;;179.60;1945.60;;;;;;4842851;29;20037;-81
2021/01/22 00:17:44;;;;;;;26.42;18.27;;;179.70;1945.60;;;;;;4828663;29;20098;-82
2021/01/22 00:20:10;;;;;;;32.17;20.77;;;179.70;1945.60;;;;;;4843485;29;20034;-83
2021/01/22 00:22:36;;;;;;;26.95;19.90;;;179.70;1945.60;;;;;;4828281;29;20042;-83
2021/01/22 00:25:04;;;;;;;27.83;20.45;;;179.80;1945.60;;;;;;4839314;29;20410;-76
2021/01/22 00:27:29;;;;;;;30.85;21.40;;;179.80;1945.60;;;;;;4838064;29;20041;-78
2021/01/22 00:29:55;;;;;;;26.67;18.75;;;179.80;1945.60;;;;;;4834892;29;20022;-78
2021/01/22 00:32:21;;;;;;;30.75;21.83;;;179.80;1945.60;;;;;;4829526;29;20183;-78
2021/01/22 00:34:47;;;;;;;25.25;17.33;;;179.90;1945.60;;;;;;4836322;29;20045;-79
2021/01/22 00:37:13;;;;;;;23.17;16.88;;;179.90;1920.00;;;;;;4825375;29;20041;-79
2021/01/22 00:39:39;;;;;;;23.77;17.60;;;180.00;1920.00;;;;;;4825432;29;20114;-80
2021/01/22 00:42:05;;;;;;;20.73;15.75;;;180.00;1920.00;;;;;;4840321;29;20117;-80
2021/01/22 00:44:31;;;;;;;22.88;16.80;;;180.00;1920.00;;;;;;4840691;29;20126;-80
2021/01/22 00:46:56;;;;;;;24.42;17.52;;;180.10;1894.40;;;;;;4839744;29;20070;-79
2021/01/22 00:49:22;;;;;;;24.92;17.27;;;180.10;1894.40;;;;;;4838222;29;20520;-79
2021/01/22 00:51:48;;;;;;;26.70;15.13;;;204.80;1894.40;;;;;;4840133;29;20030;-79
2021/01/22 00:54:14;;;;;;;17.38;13.90;;;204.90;1868.80;;;;;;4841678;29;20030;-80
2021/01/22 00:56:40;;;;;;;24.38;14.70;;;204.90;1868.80;;;;;;4842557;29;20026;-79
2021/01/22 00:59:05;;;;;;;20.13;14.90;;;204.90;1868.80;;;;;;4841601;29;20517;-79
2021/01/22 01:01:31;;;;;;;22.60;14.95;;;204.90;1868.80;;;;;;4842299;29;20450;-79
2021/01/22 01:03:57;;;;;;;27.45;17.38;;;204.90;1868.80;;;;;;4840039;29;20030;-80
2021/01/22 01:06:23;;;;;;;24.98;16.73;;;205.00;1868.80;;;;;;4842050;29;20142;-79
2021/01/22 01:08:48;;;;;;;23.00;14.43;;;205.00;1868.80;;;;;;4840353;29;20509;-80
2021/01/22 01:11:14;;;;;;;21.20;15.20;;;205.00;1868.80;;;;;;4841672;29;20022;-79
2021/01/22 01:13:40;;;;;;;20.40;14.88;;;205.00;1868.80;;;;;;4841450;29;20029;-79
2021/01/22 01:16:05;;;;;;;24.10;16.25;;;205.00;1868.80;;;;;;4840332;29;20530;-79
2021/01/22 01:18:31;;;;;;;24.17;17.00;;;205.00;1868.80;;;;;;4839979;29;20038;-79
2021/01/22 01:20:57;;;;;;;29.25;16.98;;;205.00;1868.80;;;;;;4840075;29;20072;-79
2021/01/22 01:23:22;;;;;;;27.75;17.35;;;205.00;1868.80;;;;;;4841256;29;20037;-79
2021/01/22 01:25:48;;;;;;;22.77;15.90;;;205.00;1868.80;;;;;;4840060;29;20516;-79
2021/01/22 01:28:14;;;;;;;21.85;15.88;;;205.00;1868.80;;;;;;4842109;29;20044;-79
2021/01/22 01:30:39;;;;;;;24.98;16.48;;;205.00;1868.80;;;;;;4840164;29;20041;-79
2021/01/22 01:33:05;;;;;;;21.55;15.48;;;205.10;1868.80;;;;;;4840432;29;20033;-79
2021/01/22 01:35:31;;;;;;;23.02;15.70;;;205.10;1843.20;;;;;;4841384;29;20078;-79
2021/01/22 01:37:57;;;;;;;21.48;16.05;;;205.10;1868.80;;;;;;4841549;29;20042;-79
2021/01/22 01:40:23;;;;;;;20.85;14.43;;;205.10;1868.80;;;;;;4839682;29;20044;-78
2021/01/22 01:42:49;;;;;;;22.13;14.23;;;205.10;1868.80;;;;;;4840571;29;20042;-78
2021/01/22 01:45:17;;;;;;;23.90;14.70;;;205.10;1868.80;;;;;;4841212;29;20755;-76
2021/01/22 01:47:43;;;;;;;22.25;15.77;;;205.00;1868.80;;;;;;4841220;29;20066;-78
2021/01/22 01:50:12;;;;;;;23.80;15.05;;;205.20;1868.80;;;;;;4841994;29;20050;-78
2021/01/22 01:52:38;;;;;;;20.35;15.00;;;205.10;1843.20;;;;;;4841508;29;20109;-79
2021/01/22 01:55:06;;;;;;;21.15;15.15;;;205.10;1843.20;;;;;;4840868;29;20029;-80
2021/01/22 01:57:32;;;;;;;24.98;16.15;;;205.10;1843.20;;;;;;4840002;29;20037;-78
2021/01/22 01:59:59;;;;;;;21.13;14.70;;;205.00;1843.20;;;;;;4841987;29;20034;-79
2021/01/22 02:02:25;;;;;;;17.90;13.80;;;205.00;1843.20;;;;;;4840881;29;20805;-78
2021/01/22 02:04:52;;;;;;;24.88;16.60;;;205.10;1843.20;;;;;;4840132;29;20856;-78
2021/01/22 02:07:18;;;;;;;21.52;15.45;;;205.10;1843.20;;;;;;4839977;29;20026;-78
2021/01/22 02:09:44;;;;;;;22.40;15.05;;;205.10;1843.20;;;;;;4841193;29;20034;-79
2021/01/22 02:12:11;;;;;;;18.60;13.13;;;205.10;1843.20;;;;;;4840594;29;20074;-78
2021/01/22 02:14:38;;;;;;;19.08;14.02;;;205.10;1843.20;;;;;;4839702;29;20026;-78
2021/01/22 02:17:04;;;;;;;18.55;14.45;;;205.00;1843.20;;;;;;4841884;29;20100;-78
2021/01/22 02:19:52;;;;;;;17.17;13.80;;;205.00;1843.20;;;;;;4841268;29;20041;-78
2021/01/22 02:22:19;;;;;;;19.80;14.07;;;205.00;1843.20;;;;;;4752912;30;20040;-77
2021/01/22 02:24:46;;;;;;;24.60;15.27;;;205.00;1868.80;;;;;;4754948;30;20438;-78
2021/01/22 02:27:16;;;;;;;18.42;13.57;;;204.90;1868.80;;;;;;4755271;30;20130;-78
2021/01/22 02:29:42;;;;;;;17.52;13.85;;;204.90;1868.80;;;;;;4755249;30;20039;-78
2021/01/22 02:32:10;;;;;;;25.63;15.13;;;204.90;1843.20;;;;;;4770018;30;20055;-79
2021/01/22 02:34:40;;;;;;;22.05;15.70;;;204.90;1868.80;;;;;;4755907;30;20797;-80
2021/01/22 02:37:10;;;;;;;22.40;15.20;;;204.90;1868.80;;;;;;4755443;30;20043;-80
2021/01/22 02:39:42;;;;;;;20.42;13.77;;;204.90;1868.80;;;;;;4771021;30;20132;-79
2021/01/22 02:42:09;;;;;;;21.42;15.13;;;204.90;1843.20;;;;;;4754895;30;20042;-80
2021/01/22 02:44:36;;;;;;;18.17;12.25;;;204.90;1843.20;;;;;;4769809;30;20036;-80
2021/01/22 02:47:07;;;;;;;20.05;12.35;;;204.90;1843.20;;;;;;4770481;30;20077;-80
2021/01/22 02:49:33;;;;;;;23.85;13.18;;;204.90;1843.20;;;;;;4769982;30;20061;-80
2021/01/22 02:51:59;;;;;;;15.98;12.07;;;204.80;1843.20;;;;;;4770500;30;21028;-80
2021/01/22 02:54:25;;;;;;;18.45;12.55;;;204.80;1843.20;;;;;;4754948;30;20508;-79
2021/01/22 02:57:21;;;;;;;17.55;13.05;;;204.80;1843.20;;;;;;4770370;30;20048;-79
2021/01/22 02:59:58;;;;;;;18.20;13.40;;;180.10;1868.80;;;;;;4817362;29;20469;-80
2021/01/22 03:02:38;;;;;;;19.33;12.55;;;180.10;1868.80;;;;;;4844076;29;20113;-79
2021/01/22 03:05:06;;;;;;;16.80;12.05;;;180.00;1894.40;;;;;;4844372;29;20072;-79
2021/01/22 03:07:54;;;;;;;19.30;13.13;;;180.00;1894.40;;;;;;4844141;29;20064;-79
2021/01/22 03:10:22;;;;;;;18.42;14.13;;;179.90;1894.40;;;;;;4842527;29;20026;-79
2021/01/22 03:12:50;;;;;;;17.10;13.65;;;179.90;1894.40;;;;;;4844161;29;20052;-78
2021/01/22 03:15:20;;;;;;;22.90;15.60;;;179.80;1894.40;;;;;;4843152;29;20391;-80
2021/01/22 03:17:46;;;;;;;21.42;14.98;;;179.80;1894.40;;;;;;4843926;29;20090;-79
2021/01/22 03:20:14;;;;;;;22.13;14.40;;;179.70;1920.00;;;;;;4843169;29;20495;-78
2021/01/22 03:22:40;;;;;;;19.65;13.25;;;179.70;1920.00;;;;;;4842627;29;20037;-79
2021/01/22 03:25:09;;;;;;;19.75;13.35;;;179.60;1920.00;;;;;;4842662;29;20030;-79
2021/01/22 03:27:35;;;;;;;20.10;15.57;;;179.60;1920.00;;;;;;4842205;29;20025;-79
2021/01/22 03:30:01;;;;;;;22.58;15.75;;;179.60;1920.00;;;;;;4842697;29;20026;-79
2021/01/22 03:32:27;;;;;;;23.05;16.98;;;179.50;1945.60;;;;;;4843095;29;20026;-79
2021/01/22 03:34:52;;;;;;;23.73;16.08;;;179.50;1945.60;;;;;;4841657;29;20475;-79
2021/01/22 03:37:18;;;;;;;27.00;16.42;;;179.50;1945.60;;;;;;4842720;29;20557;-79
2021/01/22 03:39:44;;;;;;;32.97;16.95;;;179.50;1945.60;;;;;;4843567;29;20371;-79
2021/01/22 03:42:10;;;;;;;21.77;16.08;;;179.50;1945.60;;;;;;4843125;29;20659;-80
2021/01/22 03:44:36;;;;;;;27.55;17.25;;;179.50;1945.60;;;;;;4841983;29;20042;-80
2021/01/22 03:47:02;;;;;;;25.25;16.95;;;179.40;1945.60;;;;;;4843299;29;20465;-80
2021/01/22 03:49:28;;;;;;;25.65;16.92;;;179.40;1971.20;;;;;;4842053;29;20070;-79
2021/01/22 03:51:53;;;;;;;23.15;15.85;;;179.40;1971.20;;;;;;4842713;29;20036;-80
2021/01/22 03:54:19;;;;;;;30.48;17.65;;;179.40;1971.20;;;;;;4842068;29;20061;-80
2021/01/22 03:56:45;;;;;;;27.25;18.42;;;179.40;1971.20;;;;;;4842593;29;20033;-79
2021/01/22 03:59:10;;;;;;;26.10;16.90;;;179.30;1971.20;;;;;;4843193;29;20045;-79
2021/01/22 04:01:36;;;;;;;25.92;17.77;;;179.30;1971.20;;;;;;4842071;29;20033;-80
2021/01/22 04:04:02;;;;;;;22.88;17.58;;;179.30;1971.20;;;;;;4842274;29;20037;-80
2021/01/22 04:06:28;;;;;;;20.13;15.73;;;179.30;1971.20;;;;;;4842060;29;20144;-80
2021/01/22 04:08:53;;;;;;;25.65;18.30;;;179.30;1971.20;;;;;;4842245;29;20489;-79
2021/01/22 04:11:19;;;;;;;24.92;14.75;;;179.30;1971.20;;;;;;4842106;29;20448;-79
2021/01/22 04:13:45;;;;;;;25.90;16.63;;;179.30;1971.20;;;;;;4841979;29;20098;-79
2021/01/22 04:16:12;;;;;;;20.10;14.25;;;179.30;1971.20;;;;;;4843006;29;20114;-79
2021/01/22 04:18:38;;;;;;;23.90;14.85;;;179.20;1996.80;;;;;;4842563;29;20094;-79
2021/01/22 04:21:04;;;;;;;21.38;15.30;;;179.20;1996.80;;;;;;4842082;29;20390;-78
2021/01/22 04:23:30;;;;;;;21.75;13.88;;;179.20;1996.80;;;;;;4842550;29;20033;-78
2021/01/22 04:25:56;;;;;;;19.17;13.68;;;179.20;1971.20;;;;;;4841704;29;20033;-78
2021/01/22 04:28:21;;;;;;;26.13;15.07;;;179.30;1971.20;;;;;;4841714;29;20740;-78
2021/01/22 04:30:47;;;;;;;21.10;12.77;;;179.20;1996.80;;;;;;4841882;29;20038;-78
2021/01/22 04:33:13;;;;;;;18.42;12.95;;;179.30;1996.80;;;;;;4843100;29;20026;-78
2021/01/22 04:35:38;;;;;;;18.48;12.93;;;179.20;1996.80;;;;;;4842508;29;20040;-78
2021/01/22 04:38:04;;;;;;;24.05;13.73;;;179.20;1996.80;;;;;;4843536;29;20447;-78
2021/01/22 04:40:30;;;;;;;23.42;12.90;;;179.30;1971.20;;;;;;4844613;29;20037;-78
2021/01/22 04:42:56;;;;;;;19.65;14.18;;;179.30;1971.20;;;;;;4842431;29;20132;-79
2021/01/22 04:45:22;;;;;;;15.07;11.98;;;179.30;1996.80;;;;;;4841696;29;20482;-79
2021/01/22 04:47:48;;;;;;;16.35;12.93;;;179.30;1996.80;;;;;;4841300;29;20038;-79
2021/01/22 04:50:17;;;;;;;17.10;11.82;;;179.30;1996.80;;;;;;4840438;29;20034;-80
2021/01/22 04:52:44;;;;;;;20.40;14.57;;;179.30;1996.80;;;;;;4841612;29;20068;-80
2021/01/22 04:55:15;;;;;;;17.08;11.57;;;179.30;1996.80;;;;;;4840704;29;20038;-81
2021/01/22 04:57:48;;;;;;;17.48;12.27;;;179.30;1996.80;;;;;;4842070;29;20378;-79
2021/01/22 05:00:15;;;;;;;16.60;12.48;;;179.30;1996.80;;;;;;4841949;29;20034;-79
2021/01/22 05:02:41;;;;;;;22.42;14.27;;;179.30;1996.80;;;;;;4842300;29;20569;-80
2021/01/22 05:05:08;;;;;;;18.67;12.93;;;179.30;1996.80;;;;;;4840457;29;20060;-80
2021/01/22 05:07:34;;;;;;;19.42;13.18;;;179.30;1996.80;;;;;;4840632;29;20801;-79
2021/01/22 05:10:01;;;;;;;18.27;12.93;;;179.30;1996.80;;;;;;4840434;29;20026;-80
2021/01/22 05:12:36;;;;;;;21.13;13.23;;;179.30;1996.80;;;;;;4842058;29;20050;-80
2021/01/22 05:15:16;;;;;;;18.02;13.52;;;179.30;1996.80;;;;;;4841817;29;20101;-80
2021/01/22 05:18:03;;;;;;;17.63;12.25;;;179.30;1996.80;;;;;;4840127;29;20037;-79
2021/01/22 05:20:36;;;;;;;19.50;12.70;;;179.30;1996.80;;;;;;4841442;29;20546;-80
2021/01/22 05:23:06;;;;;;;18.52;12.45;;;179.30;2022.40;;;;;;4840829;29;20041;-81
2021/01/22 05:25:33;;;;;;;18.27;12.32;;;179.30;1996.80;;;;;;4841541;29;20049;-80
2021/01/22 05:28:00;;;;;;;19.02;12.43;;;179.30;2022.40;;;;;;4840558;29;20034;-79
2021/01/22 05:30:30;;;;;;;19.20;12.27;;;179.30;1996.80;;;;;;4840187;29;20033;-79
2021/01/22 05:33:15;;;;;;;18.25;13.52;;;179.40;1996.80;;;;;;4841225;29;20026;-80
2021/01/22 05:35:41;;;;;;;17.67;12.73;;;179.30;2022.40;;;;;;4840098;29;20033;-79
2021/01/22 05:38:07;;;;;;;21.27;13.43;;;179.30;1996.80;;;;;;4840599;29;20619;-79
2021/01/22 05:40:33;;;;;;;18.95;13.45;;;179.40;2022.40;;;;;;4840543;29;20030;-79
2021/01/22 05:42:59;;;;;;;17.27;12.70;;;179.40;2022.40;;;;;;4841247;29;20065;-79
2021/01/22 05:45:54;;;;;;;19.80;13.95;;;179.40;1996.80;;;;;;4840544;29;20129;-79
2021/01/22 05:48:22;;;;;;;20.02;13.35;;;179.40;1996.80;;;;;;4752650;30;20073;-79
2021/01/22 05:50:58;;;;;;;19.50;13.75;;;179.40;1996.80;;;;;;4767299;30;20118;-79
2021/01/22 05:53:26;;;;;;;24.70;16.25;;;179.40;1996.80;;;;;;4751602;30;20842;-79
2021/01/22 05:56:08;;;;;;;27.30;16.10;;;179.40;2022.40;;;;;;4767358;30;20024;-78
2021/01/22 05:58:35;;;;;;;27.83;14.77;;;179.40;2022.40;;;;;;4754686;30;20400;-79
2021/01/22 06:01:25;;;;;;;25.85;16.45;;;179.40;1996.80;;;;;;4755811;30;20536;-79
2021/01/22 06:03:53;;;;;;;24.33;13.50;;;179.50;1996.80;;;;;;4770149;30;20044;-79
2021/01/22 06:06:20;;;;;;;18.42;13.48;;;179.50;1996.80;;;;;;4755551;30;20087;-78
2021/01/22 06:08:51;;;;;;;22.40;12.50;;;179.40;1996.80;;;;;;4755926;30;20108;-78
2021/01/22 06:11:20;;;;;;;16.10;12.45;;;179.40;1996.80;;;;;;4770053;30;20040;-78
2021/01/22 06:13:50;;;;;;;20.05;12.45;;;179.40;1996.80;;;;;;4753142;30;20036;-79
2021/01/22 06:16:18;;;;;;;18.23;12.25;;;179.40;1996.80;;;;;;4755831;30;20116;-78
2021/01/22 06:18:48;;;;;;;24.45;16.88;;;179.40;1996.80;;;;;;4755075;30;20579;-78
2021/01/22 06:21:20;;;;;;;21.35;14.70;;;179.40;1996.80;;;;;;4755861;30;20550;-78
2021/01/22 06:23:49;;;;;;;27.20;16.95;;;179.50;1996.80;;;;;;4777897;29;20062;-78
2021/01/22 06:26:15;;;;;;;26.00;17.27;;;179.50;1996.80;;;;;;4845181;29;20385;-79
2021/01/22 06:28:42;;;;;;;27.05;15.05;;;179.40;2022.40;;;;;;4843005;29;20049;-79
2021/01/22 06:31:12;;;;;;;25.25;14.73;;;179.40;2022.40;;;;;;4843036;29;20073;-79
2021/01/22 06:33:39;;;;;;;30.17;18.13;;;179.50;2022.40;;;;;;4843640;29;20026;-79
2021/01/22 06:36:07;;;;;;;25.48;16.67;;;179.50;2022.40;;;;;;4830330;29;20042;-79
2021/01/22 06:38:34;;;;;;;24.85;15.20;;;179.60;2022.40;;;;;;4825079;29;20090;-77
2021/01/22 06:41:00;;;;;;;26.48;15.40;;;179.60;2022.40;;;;;;4825906;29;20051;-78
2021/01/22 06:43:27;;;;;;;28.33;15.38;;;179.60;2022.40;;;;;;4826340;29;20131;-78
2021/01/22 06:46:00;;;;;;;21.95;14.68;;;179.60;1996.80;;;;;;4824463;29;20418;-77
2021/01/22 06:48:26;;;;;;;29.10;17.67;;;179.70;1996.80;;;;;;4826498;29;20042;-77
2021/01/22 06:50:51;;;;;;;21.45;13.75;;;180.10;1996.80;;;;;;4827070;29;20135;-78
2021/01/22 06:53:17;;;;;;;27.63;16.65;;;179.80;1996.80;;;;;;4824711;29;20490;-79
2021/01/22 06:55:52;;;;;;;21.33;13.73;;;179.90;1996.80;;;;;;4826273;29;20077;-80
2021/01/22 06:58:25;;;;;;;18.00;13.20;;;204.90;1996.80;;;;;;4824830;29;20509;-79
2021/01/22 07:00:53;;;;;;;24.10;12.60;;;180.00;1971.20;;;;;;4824714;29;20491;-79
2021/01/22 07:03:36;;;;;;;21.77;13.88;;;180.10;1971.20;;;;;;4826029;29;20062;-79
2021/01/22 07:06:50;;;;;;;26.33;14.00;;;204.80;1971.20;;;;;;4824089;29;20109;-79
2021/01/22 07:09:16;;;;;;;21.65;13.45;;;204.90;1971.20;;;;;;4821871;29;20462;-79
2021/01/22 07:11:55;;;;;;;20.70;14.30;;;204.90;1971.20;;;;;;4824694;29;20113;-79
2021/01/22 07:14:39;;;;;;;25.48;15.02;;;205.00;1971.20;;;;;;4825785;29;20099;-80
2021/01/22 07:17:19;;;;;;;22.23;14.85;;;205.10;1945.60;;;;;;4824120;29;20091;-80
2021/01/22 07:20:08;;;;;;;24.27;14.48;;;205.10;1945.60;;;;;;4826190;29;20030;-79
2021/01/22 07:22:48;;;;;;;25.92;15.18;;;205.20;1945.60;;;;;;4839471;29;20062;-80
2021/01/22 07:25:27;;;;;;;23.83;13.90;;;205.20;1945.60;;;;;;4824393;29;21152;-79
2021/01/22 07:27:53;;;;;;;21.95;12.55;;;205.30;1945.60;;;;;;4823826;29;20099;-80
2021/01/22 07:30:19;;;;;;;15.77;12.15;;;205.30;1920.00;;;;;;4826324;29;20019;-80
2021/01/22 07:32:48;;;;;;;21.48;12.90;;;205.40;1920.00;;;;;;4825900;29;20035;-79
2021/01/22 07:35:23;;;;;;;19.55;12.90;;;205.40;1920.00;;;;;;4824976;29;20026;-80
2021/01/22 07:37:50;;;;;;;19.80;12.68;;;205.60;1920.00;;;;;;4824734;29;20048;-79
2021/01/22 07:40:17;;;;;;;22.45;14.35;;;205.60;1920.00;;;;;;4824776;29;20425;-79
2021/01/22 07:42:43;;;;;;;22.13;14.75;;;230.60;1920.00;;;;;;4825395;29;20026;-79
2021/01/22 07:45:10;;;;;;;27.67;17.00;;;205.70;1894.40;;;;;;4825480;29;20551;-78
2021/01/22 07:47:38;;;;;;;30.13;16.02;;;205.70;1894.40;;;;;;4825140;29;20045;-79
2021/01/22 07:50:05;;;;;;;23.35;14.55;;;230.40;1894.40;;;;;;4825270;29;20026;-80
2021/01/22 07:52:36;;;;;;;27.40;15.35;;;230.50;1894.40;;;;;;4825092;29;20023;-79
2021/01/22 09:04:34;;;;;;;;;;;282.30;1715.20;;;;;;4849287;29;20073;-78
2021/01/22 09:07:01;;;;;;;29.13;18.25;;;307.30;1715.20;;;;;;4844174;29;19965;-80
2021/01/22 09:09:47;;;;;;;31.52;20.33;;;307.30;1715.20;;;;;;4844259;29;20056;-80
2021/01/22 09:12:15;;;;;;;40.95;25.02;;;307.40;1715.20;;;;;;4861968;29;20024;-78
2021/01/22 09:14:59;;;;;;;23.38;14.57;;;307.50;1715.20;;;;;;4844671;29;20113;-77
2021/01/22 09:17:38;;;;;;;30.65;20.75;;;307.60;1689.60;;;;;;4842030;29;20026;-78
2021/01/22 09:20:17;;;;;;;24.20;16.58;;;307.40;1715.20;;;;;;4837521;29;20022;-78
2021/01/22 09:22:44;;;;;;;24.85;15.27;;;307.30;1740.80;;;;;;4833475;29;20041;-83
2021/01/22 09:25:15;;;;;;;26.35;17.42;;;307.30;1740.80;;;;;;4846616;29;20117;-82
2021/01/22 09:27:42;;;;;;;25.15;16.85;;;307.30;1740.80;;;;;;4853814;29;20026;-82
2021/01/22 09:30:21;;;;;;;21.45;13.98;;;307.40;1740.80;;;;;;4850703;29;20033;-82
2021/01/22 09:32:49;;;;;;;21.38;13.55;;;307.50;1715.20;;;;;;4855731;29;20026;-82
2021/01/22 09:35:16;;;;;;;17.27;10.93;;;307.60;1715.20;;;;;;4856102;29;20037;-83
2021/01/22 09:37:42;;;;;;;22.75;13.43;;;307.70;1689.60;;;;;;4873820;29;20059;-83
2021/01/22 09:40:08;;;;;;;27.23;17.80;;;307.70;1664.00;;;;;;4856655;29;20033;-82
2021/01/22 09:42:35;;;;;;;37.67;22.55;;;307.80;1689.60;;;;;;4855864;29;20069;-83
2021/01/22 09:45:01;;;;;;;20.35;13.85;;;307.80;1689.60;;;;;;4859312;29;20030;-81
2021/01/22 09:47:27;;;;;;;26.52;15.20;;;307.80;1664.00;;;;;;4842117;29;20030;-84
2021/01/22 09:49:52;;;;;;;30.35;17.25;;;307.80;1664.00;;;;;;4855477;29;20026;-84
2021/01/22 09:52:22;;;;;;;21.55;15.20;;;307.80;1664.00;;;;;;4860441;29;20041;-85
2021/01/22 09:54:48;;;;;;;28.27;17.52;;;307.90;1664.00;;;;;;4846182;29;20033;-83
2021/01/22 09:57:14;;;;;;;19.73;12.48;;;307.90;1664.00;;;;;;4845617;29;20397;-83
2021/01/22 09:59:40;;;;;;;21.10;13.50;;;307.90;1664.00;;;;;;4855575;29;20030;-83
2021/01/22 10:02:06;;;;;;;21.25;13.60;;;308.00;1664.00;;;;;;4858028;29;20177;-83
2021/01/22 10:04:36;;;;;;;24.00;15.02;;;308.10;1664.00;;;;;;4854737;29;20544;-83
2021/01/22 10:07:04;;;;;;;20.60;13.25;;;308.00;1664.00;;;;;;4873119;29;20041;-80
2021/01/22 10:09:30;;;;;;;19.77;12.95;;;308.00;1664.00;;;;;;4866971;29;20033;-80
2021/01/22 10:11:56;;;;;;;21.60;11.65;;;308.00;1664.00;;;;;;4851001;29;20131;-81
2021/01/22 10:14:21;;;;;;;18.55;13.52;;;307.90;1689.60;;;;;;4850117;29;20041;-82
2021/01/22 10:16:47;;;;;;;17.73;12.13;;;308.10;1664.00;;;;;;4851745;29;20037;-80
2021/01/22 10:19:13;;;;;;;20.83;14.05;;;332.80;1689.60;;;;;;4849274;29;20037;-82
2021/01/22 10:21:38;;;;;;;24.73;14.68;;;308.10;1664.00;;;;;;4851703;29;20040;-81
2021/01/22 10:24:04;;;;;;;34.90;22.20;;;308.00;1689.60;;;;;;4866801;29;20029;-83
2021/01/22 10:26:30;;;;;;;42.03;24.80;;;308.10;1689.60;;;;;;4852880;29;20030;-84
2021/01/22 10:28:56;;;;;;;23.55;16.52;;;308.10;1689.60;;;;;;4855643;29;20030;-82
2021/01/22 10:31:22;;;;;;;27.83;13.30;;;332.80;1715.20;;;;;;4854897;29;20089;-83
2021/01/22 10:33:48;;;;;;;25.92;14.40;;;332.80;1689.60;;;;;;4853135;29;20069;-82
2021/01/22 10:36:14;;;;;;;31.48;18.40;;;332.80;1689.60;;;;;;4849394;29;20029;-81
2021/01/22 10:38:41;;;;;;;24.23;15.07;;;333.00;1664.00;;;;;;4854618;29;20034;-83
2021/01/22 10:41:07;;;;;;;16.70;12.48;;;333.30;1638.40;;;;;;4860836;29;20251;-83
2021/01/22 10:43:33;;;;;;;19.17;11.93;;;333.40;1612.80;;;;;;4869992;29;20029;-84
2021/01/22 10:45:59;;;;;;;20.77;13.88;;;333.40;1612.80;;;;;;4855687;29;20057;-84
2021/01/22 10:48:25;;;;;;;18.83;13.05;;;333.70;1587.20;;;;;;4861870;29;20025;-87
2021/01/22 10:50:51;;;;;;;19.95;13.27;;;358.60;1587.20;;;;;;4868669;29;20033;-87
2021/01/22 10:53:18;;;;;;;19.35;13.27;;;358.60;1561.60;;;;;;4867666;29;20036;-88
2021/01/22 10:55:44;;;;;;;17.67;10.10;;;358.70;1536.00;;;;;;4863106;29;20034;-81
2021/01/22 10:58:10;;;;;;;18.77;10.45;;;358.90;1536.00;;;;;;4863879;29;20029;-82
2021/01/22 11:00:36;;;;;;;19.25;12.82;;;384.00;1484.80;;;;;;4858194;29;20041;-83
2021/01/22 11:03:03;;;;;;;17.35;10.68;;;384.00;1484.80;;;;;;4852702;29;20037;-83
2021/01/22 11:05:29;;;;;;;30.23;14.20;;;384.00;1484.80;;;;;;4853867;29;20049;-83
2021/01/22 11:10:41;;;;;;;;;;;359.10;1510.40;;;;;;4901532;23;20113;-85
2021/01/22 11:13:08;;;;;;;19.13;13.00;;;358.90;1510.40;;;;;;4868711;29;19991;-84
2021/01/22 11:18:37;;;;;;;14.43;10.40;;;358.90;1510.40;;;;;;4882620;23;20434;-87
2021/01/22 11:24:45;;;;;;;14.90;10.13;;;358.80;1536.00;;;;;;4772212;30;20034;-84
2021/01/22 11:27:10;;;;;;;17.02;10.27;;;358.70;1536.00;;;;;;4757170;30;20532;-86
2021/01/22 11:29:39;;;;;;;18.88;10.43;;;358.60;1536.00;;;;;;4757094;30;20048;-86
2021/01/22 11:34:58;;;;;;;16.17;10.35;;;358.50;1561.60;;;;;;4899828;24;20118;-83
2021/01/22 11:37:24;;;;;;;12.20;9.02;;;358.40;1561.60;;;;;;4845516;29;20120;-83
2021/01/22 11:39:50;;;;;;;14.43;10.20;;;358.40;1587.20;;;;;;4843544;29;20030;-83
2021/01/22 11:42:17;;;;;;;18.98;12.27;;;333.70;1587.20;;;;;;4859262;29;20030;-83
2021/01/22 11:44:44;;;;;;;14.88;10.07;;;333.50;1612.80;;;;;;4843093;29;20030;-84
2021/01/22 11:47:10;;;;;;;19.75;12.68;;;333.50;1612.80;;;;;;4846540;29;20034;-85
2021/01/22 11:49:36;;;;;;;20.95;10.88;;;333.40;1638.40;;;;;;4845847;29;20034;-84
2021/01/22 11:52:03;;;;;;;19.75;11.63;;;333.40;1638.40;;;;;;4848203;29;20014;-85
2021/01/22 11:54:29;;;;;;;28.60;12.50;;;333.40;1638.40;;;;;;4844836;29;20040;-83
2021/01/22 11:56:55;;;;;;;23.92;15.90;;;333.40;1638.40;;;;;;4842379;29;20038;-83
2021/01/22 11:59:20;;;;;;;17.70;11.43;;;333.40;1638.40;;;;;;4839276;29;20030;-83
2021/01/22 12:01:47;;;;;;;20.27;10.98;;;333.60;1638.40;;;;;;4838413;29;20166;-84
2021/01/22 12:04:14;;;;;;;21.55;11.10;;;358.70;1638.40;;;;;;4841945;29;20546;-83
2021/01/22 12:06:39;;;;;;;18.70;11.13;;;358.60;1612.80;;;;;;4844664;29;20482;-82
2021/01/22 12:09:05;;;;;;;15.70;9.88;;;384.20;1484.80;;;;;;4834884;29;20037;-83
2021/01/22 12:11:33;;;;;;;14.30;9.90;;;409.90;1433.60;;;;;;4830019;29;20026;-86
2021/01/22 12:14:01;;;;;;;21.45;10.77;;;410.30;1356.80;;;;;;4846246;29;20030;-86
2021/01/22 12:16:26;;;;;;;17.85;10.02;;;435.50;1331.20;;;;;;4828590;29;20033;-89
2021/01/22 12:18:52;;;;;;;15.68;10.38;;;435.70;1305.60;;;;;;4827599;29;20044;-89
2021/01/22 12:21:18;;;;;;;17.70;10.25;;;435.80;1305.60;;;;;;4827629;29;20090;-89
2021/01/22 12:23:44;;;;;;;19.98;11.75;;;435.40;1331.20;;;;;;4828170;29;20113;-89
2021/01/22 12:26:10;;;;;;;18.75;11.13;;;435.60;1331.20;;;;;;4826990;29;20490;-90
2021/01/22 12:28:40;;;;;;;14.18;9.35;;;435.50;1331.20;;;;;;4827106;29;20041;-90
2021/01/22 12:31:07;;;;;;;15.13;8.98;;;435.30;1331.20;;;;;;4827629;29;20030;-91
2021/01/22 12:33:34;;;;;;;16.05;9.93;;;410.50;1382.40;;;;;;4827564;29;20054;-90
2021/01/22 12:36:00;;;;;;;16.95;9.23;;;409.90;1408.00;;;;;;4828068;29;20037;-90
2021/01/22 12:38:26;;;;;;;14.45;9.95;;;384.70;1459.20;;;;;;4828384;29;20046;-89
2021/01/22 12:40:53;;;;;;;15.82;10.55;;;384.50;1459.20;;;;;;4828630;29;20029;-90
2021/01/22 12:43:19;;;;;;;14.75;10.00;;;384.40;1484.80;;;;;;4828436;29;20030;-89
2021/01/22 12:45:45;;;;;;;17.70;10.40;;;384.50;1459.20;;;;;;4828889;29;20037;-90
2021/01/22 12:48:11;;;;;;;15.90;11.00;;;384.60;1459.20;;;;;;4828379;29;20121;-90
2021/01/22 12:50:37;;;;;;;15.02;11.07;;;384.50;1484.80;;;;;;4813898;29;20486;-89
2021/01/22 12:53:04;;;;;;;16.92;9.80;;;384.30;1484.80;;;;;;4809478;29;20034;-89
2021/01/22 12:55:30;;;;;;;15.48;9.55;;;384.00;1510.40;;;;;;4811091;29;20117;-88
2021/01/22 12:57:55;;;;;;;17.40;9.68;;;384.00;1510.40;;;;;;4813449;29;20060;-90
2021/01/22 13:06:15;;;;;;;;;;;358.90;1561.60;;;;;;4880597;24;20091;-90
2021/01/22 13:08:41;;;;;;;14.23;8.02;;;358.60;1587.20;;;;;;4843552;29;20395;-83
2021/01/22 13:11:06;;;;;;;16.35;9.60;;;358.60;1612.80;;;;;;4845163;29;20097;-83
2021/01/22 13:13:32;;;;;;;13.38;8.52;;;358.40;1638.40;;;;;;4839647;29;20030;-83
2021/01/22 13:15:58;;;;;;;14.85;8.43;;;333.70;1638.40;;;;;;4848044;29;20025;-84
2021/01/22 13:18:24;;;;;;;16.70;10.25;;;333.60;1638.40;;;;;;4846735;29;20101;-83
2021/01/22 13:21:03;;;;;;;20.30;11.70;;;333.60;1638.40;;;;;;4851307;29;20020;-86
2021/01/22 13:23:31;;;;;;;17.83;9.95;;;333.60;1664.00;;;;;;4947292;24;20128;-87
2021/01/22 13:25:58;;;;;;;20.13;11.82;;;333.50;1664.00;;;;;;4885417;29;20103;-85
2021/01/22 13:28:24;;;;;;;18.98;11.38;;;333.40;1664.00;;;;;;4988407;24;20053;-86
2021/01/22 13:30:51;;;;;;;18.08;11.63;;;333.40;1664.00;;;;;;4847547;29;20034;-85
2021/01/22 13:33:17;;;;;;;24.42;14.80;;;333.30;1664.00;;;;;;4820807;29;20040;-79